Time;durP1;ratioP1;P1;durP2;ratioP2;P2;SDS_P1;SDS_P2;PMS_P1;PMS_P2;Temp;Humidity;BMP_temperature;BMP_pressure;BME280_temperature;BME280_humidity;BME280_pressure;Samples;Min_cycle;Max_cycle;Signal;HPM_P1;HPM_P2
2023/04/18 00:01:53;;;;;;;23.63;22.23;;;;;;;;;;5040723;28;20467;-81
2023/04/18 00:04:20;;;;;;;24.47;22.97;;;;;;;;;;5041025;28;20460;-80
2023/04/18 00:06:48;;;;;;;25.17;23.57;;;;;;;;;;5040213;28;20454;-80
2023/04/18 00:09:17;;;;;;;23.37;21.93;;;;;;;;;;5040973;28;20492;-80
2023/04/18 00:11:44;;;;;;;23.27;21.87;;;;;;;;;;5042632;28;20451;-81
2023/04/18 00:14:12;;;;;;;23.43;21.90;;;;;;;;;;5041110;28;20494;-80
2023/04/18 00:16:39;;;;;;;23.97;22.47;;;;;;;;;;5041376;28;20458;-80
2023/04/18 00:19:07;;;;;;;24.03;22.53;;;;;;;;;;5041149;28;20541;-82
2023/04/18 00:21:34;;;;;;;24.10;22.60;;;;;;;;;;5040725;28;20951;-81
2023/04/18 00:24:02;;;;;;;23.30;21.90;;;;;;;;;;5040914;28;20462;-80
2023/04/18 00:26:30;;;;;;;24.17;22.67;;;;;;;;;;5039623;28;21027;-80
2023/04/18 00:28:57;;;;;;;24.17;22.67;;;;;;;;;;5041955;28;20442;-80
2023/04/18 00:31:24;;;;;;;24.10;22.70;;;;;;;;;;5040505;28;20480;-80
2023/04/18 00:33:51;;;;;;;24.03;22.60;;;;;;;;;;5041591;28;20782;-81
2023/04/18 00:36:18;;;;;;;24.47;22.87;;;;;;;;;;5040297;28;20422;-81
2023/04/18 00:38:45;;;;;;;23.40;22.00;;;;;;;;;;5039998;28;20470;-80
2023/04/18 00:41:12;;;;;;;24.73;23.23;;;;;;;;;;5040804;28;20453;-80
2023/04/18 00:43:41;;;;;;;24.77;23.07;;;;;;;;;;5041280;28;20447;-81
2023/04/18 00:46:08;;;;;;;24.10;22.63;;;;;;;;;;5040986;28;20457;-80
2023/04/18 00:48:35;;;;;;;23.63;22.13;;;;;;;;;;5039185;28;20443;-80
2023/04/18 00:51:02;;;;;;;23.53;22.13;;;;;;;;;;5039960;28;20426;-81
2023/04/18 00:53:29;;;;;;;24.20;22.70;;;;;;;;;;5039750;28;20410;-81
2023/04/18 00:55:56;;;;;;;24.20;22.57;;;;;;;;;;5039368;28;20421;-80
2023/04/18 00:58:24;;;;;;;24.30;22.80;;;;;;;;;;5040599;28;20475;-81
2023/04/18 01:00:53;;;;;;;24.40;22.90;;;;;;;;;;5040140;28;20426;-80
2023/04/18 01:03:21;;;;;;;23.47;22.03;;;;;;;;;;5039490;28;20481;-81
2023/04/18 01:05:48;;;;;;;23.07;21.77;;;;;;;;;;5039418;28;20512;-80
2023/04/18 01:08:16;;;;;;;23.70;22.20;;;;;;;;;;5038854;28;20426;-80
2023/04/18 01:10:43;;;;;;;23.77;22.27;;;;;;;;;;5038965;28;20430;-80
2023/04/18 01:13:11;;;;;;;23.00;21.60;;;;;;;;;;5039366;28;20928;-80
2023/04/18 01:15:39;;;;;;;25.00;23.10;;;;;;;;;;5038828;28;20418;-81
2023/04/18 01:18:08;;;;;;;24.17;22.67;;;;;;;;;;5038743;28;21106;-80
2023/04/18 01:20:37;;;;;;;23.27;21.87;;;;;;;;;;5038281;28;20901;-80
2023/04/18 01:23:04;;;;;;;23.60;22.03;;;;;;;;;;5039681;28;20768;-80
2023/04/18 01:25:33;;;;;;;22.77;21.47;;;;;;;;;;5038752;28;20462;-79
2023/04/18 01:28:00;;;;;;;23.97;22.47;;;;;;;;;;5038821;28;20426;-82
2023/04/18 01:30:27;;;;;;;25.30;23.67;;;;;;;;;;5037973;28;20435;-79
2023/04/18 01:32:54;;;;;;;24.73;23.10;;;;;;;;;;5039058;28;20447;-81
2023/04/18 01:35:21;;;;;;;23.83;22.37;;;;;;;;;;5039855;28;20447;-80
2023/04/18 01:37:48;;;;;;;24.40;22.90;;;;;;;;;;5040148;28;20505;-80
2023/04/18 01:40:15;;;;;;;23.53;22.13;;;;;;;;;;5039075;28;20467;-81
2023/04/18 01:42:44;;;;;;;24.30;22.70;;;;;;;;;;5040028;28;20492;-80
2023/04/18 01:45:11;;;;;;;24.30;22.80;;;;;;;;;;5038735;28;20442;-80
2023/04/18 01:47:38;;;;;;;25.17;23.57;;;;;;;;;;5038459;28;20836;-81
2023/04/18 01:50:06;;;;;;;24.17;22.47;;;;;;;;;;5038518;28;20895;-81
2023/04/18 01:52:33;;;;;;;24.13;22.57;;;;;;;;;;5037496;28;20906;-80
2023/04/18 01:55:01;;;;;;;24.43;22.83;;;;;;;;;;5038044;28;20451;-81
2023/04/18 01:57:28;;;;;;;23.93;22.53;;;;;;;;;;5037473;28;20525;-81
2023/04/18 01:59:56;;;;;;;26.33;24.53;;;;;;;;;;5036986;28;20457;-81
2023/04/18 02:02:23;;;;;;;24.40;22.53;;;;;;;;;;5037757;28;20433;-81
2023/04/18 02:04:50;;;;;;;26.17;24.47;;;;;;;;;;5037989;28;20448;-80
2023/04/18 02:07:17;;;;;;;25.57;23.87;;;;;;;;;;5037168;28;20896;-80
2023/04/18 02:09:44;;;;;;;24.77;23.13;;;;;;;;;;5036957;28;20472;-80
2023/04/18 02:12:11;;;;;;;25.70;24.07;;;;;;;;;;5037936;28;20430;-78
2023/04/18 02:14:38;;;;;;;24.70;23.00;;;;;;;;;;5037787;28;20761;-80
2023/04/18 02:17:06;;;;;;;25.53;23.93;;;;;;;;;;5036656;28;20414;-81
2023/04/18 02:19:33;;;;;;;26.20;24.50;;;;;;;;;;5037730;28;21041;-80
2023/04/18 02:22:00;;;;;;;25.97;24.17;;;;;;;;;;5037591;28;20574;-81
2023/04/18 02:24:27;;;;;;;22.93;21.63;;;;;;;;;;5038003;28;20481;-81
2023/04/18 02:26:54;;;;;;;25.33;23.47;;;;;;;;;;5037776;28;20538;-81
2023/04/18 02:29:21;;;;;;;25.67;23.97;;;;;;;;;;5037422;28;20462;-81
2023/04/18 02:31:48;;;;;;;25.00;23.30;;;;;;;;;;5038609;28;20837;-81
2023/04/18 02:34:17;;;;;;;23.20;21.80;;;;;;;;;;5038196;28;20480;-81
2023/04/18 02:36:44;;;;;;;23.33;21.80;;;;;;;;;;5038620;28;20422;-81
2023/04/18 02:39:11;;;;;;;24.87;23.10;;;;;;;;;;5038776;28;20461;-80
2023/04/18 02:41:38;;;;;;;24.17;22.40;;;;;;;;;;5039377;28;20422;-81
2023/04/18 02:44:06;;;;;;;25.50;23.83;;;;;;;;;;5037891;28;20426;-80
2023/04/18 02:46:33;;;;;;;25.73;23.97;;;;;;;;;;5037876;28;20463;-80
2023/04/18 02:49:00;;;;;;;25.40;23.70;;;;;;;;;;5037371;28;20472;-80
2023/04/18 02:51:29;;;;;;;25.10;23.40;;;;;;;;;;5037540;28;20496;-80
2023/04/18 02:53:56;;;;;;;26.90;25.00;;;;;;;;;;5037842;28;20459;-81
2023/04/18 02:56:23;;;;;;;28.20;26.27;;;;;;;;;;5037287;28;20422;-80
2023/04/18 02:58:52;;;;;;;25.80;24.10;;;;;;;;;;5037656;28;20498;-80
2023/04/18 03:01:19;;;;;;;25.87;24.17;;;;;;;;;;5036672;28;20446;-80
2023/04/18 03:03:46;;;;;;;26.83;24.93;;;;;;;;;;5036722;28;20505;-80
2023/04/18 03:06:13;;;;;;;26.30;24.43;;;;;;;;;;5036478;28;20450;-81
2023/04/18 03:08:42;;;;;;;26.40;24.50;;;;;;;;;;5036794;28;20805;-80
2023/04/18 03:11:09;;;;;;;25.57;23.80;;;;;;;;;;5036079;28;20782;-80
2023/04/18 03:13:36;;;;;;;27.43;25.63;;;;;;;;;;5036209;28;20505;-81
2023/04/18 03:16:03;;;;;;;26.87;24.97;;;;;;;;;;5036714;28;20439;-81
2023/04/18 03:18:30;;;;;;;25.13;23.53;;;;;;;;;;5036445;28;20800;-80
2023/04/18 03:20:57;;;;;;;26.80;24.90;;;;;;;;;;5036740;28;21002;-80
2023/04/18 03:23:24;;;;;;;26.87;25.07;;;;;;;;;;5036866;28;20426;-80
2023/04/18 03:25:53;;;;;;;27.27;25.37;;;;;;;;;;5035042;28;21007;-81
2023/04/18 03:28:20;;;;;;;28.00;25.97;;;;;;;;;;5036653;28;20463;-81
2023/04/18 03:30:46;;;;;;;26.87;24.77;;;;;;;;;;5035928;28;21218;-81
2023/04/18 03:33:15;;;;;;;26.57;24.77;;;;;;;;;;5036433;28;20443;-81
2023/04/18 03:35:42;;;;;;;26.50;24.70;;;;;;;;;;5036008;28;20459;-81
2023/04/18 03:38:09;;;;;;;27.47;25.47;;;;;;;;;;5036341;28;20928;-81
2023/04/18 03:40:36;;;;;;;26.80;25.00;;;;;;;;;;5035444;28;20442;-80
2023/04/18 03:43:05;;;;;;;27.07;25.37;;;;;;;;;;5036599;28;20448;-80
2023/04/18 03:45:32;;;;;;;27.50;25.70;;;;;;;;;;5035827;28;20443;-81
2023/04/18 03:47:59;;;;;;;27.77;25.83;;;;;;;;;;5036167;28;20473;-80
2023/04/18 03:50:26;;;;;;;27.93;25.93;;;;;;;;;;5036481;28;20422;-80
2023/04/18 03:52:53;;;;;;;27.40;25.30;;;;;;;;;;5036153;28;20448;-80
2023/04/18 03:55:20;;;;;;;28.33;26.23;;;;;;;;;;5036295;28;20425;-80
2023/04/18 03:57:47;;;;;;;29.80;27.50;;;;;;;;;;5034734;28;20477;-82
2023/04/18 04:00:16;;;;;;;28.07;25.97;;;;;;;;;;5035792;28;20446;-81
2023/04/18 04:02:43;;;;;;;27.87;25.77;;;;;;;;;;5036402;28;20452;-80
2023/04/18 04:05:10;;;;;;;27.30;25.30;;;;;;;;;;5035747;28;20936;-81
2023/04/18 04:07:37;;;;;;;27.77;25.30;;;;;;;;;;5036521;28;20489;-80
2023/04/18 04:10:04;;;;;;;27.43;25.23;;;;;;;;;;5037881;28;20471;-80
2023/04/18 04:12:31;;;;;;;29.33;27.10;;;;;;;;;;5037864;28;20448;-79
2023/04/18 04:14:59;;;;;;;29.90;27.63;;;;;;;;;;5037901;28;20517;-80
2023/04/18 04:17:28;;;;;;;31.00;28.50;;;;;;;;;;5036740;28;20914;-79
2023/04/18 04:19:55;;;;;;;30.20;27.80;;;;;;;;;;5036762;28;20487;-81
2023/04/18 04:22:22;;;;;;;31.57;29.07;;;;;;;;;;5038844;28;20844;-79
2023/04/18 04:24:49;;;;;;;31.47;28.97;;;;;;;;;;5043608;28;20426;-80
2023/04/18 04:27:17;;;;;;;28.93;26.60;;;;;;;;;;5043056;28;20473;-80
2023/04/18 04:29:44;;;;;;;30.23;28.07;;;;;;;;;;5043301;28;20502;-80
2023/04/18 04:32:12;;;;;;;29.63;27.20;;;;;;;;;;5043531;28;20514;-80
2023/04/18 04:34:41;;;;;;;28.53;26.30;;;;;;;;;;5043144;28;20475;-80
2023/04/18 04:37:08;;;;;;;29.73;27.40;;;;;;;;;;5042123;28;20534;-80
2023/04/18 04:39:35;;;;;;;31.60;28.90;;;;;;;;;;5041172;28;20480;-80
2023/04/18 04:42:03;;;;;;;29.13;26.87;;;;;;;;;;5042616;28;20460;-80
2023/04/18 04:44:30;;;;;;;31.67;28.83;;;;;;;;;;5041691;28;20441;-80
2023/04/18 04:46:58;;;;;;;27.93;25.80;;;;;;;;;;5042061;28;20480;-80
2023/04/18 04:49:25;;;;;;;27.17;25.17;;;;;;;;;;5042578;28;20461;-80
2023/04/18 04:51:53;;;;;;;28.70;26.43;;;;;;;;;;5042560;28;20455;-79
2023/04/18 04:54:20;;;;;;;29.00;26.80;;;;;;;;;;5041995;28;20509;-80
2023/04/18 04:56:47;;;;;;;29.63;27.13;;;;;;;;;;5041239;28;20484;-80
2023/04/18 04:59:14;;;;;;;30.33;28.02;;;;;;;;;;5041417;28;20479;-80
2023/04/18 05:01:41;;;;;;;31.00;28.53;;;;;;;;;;5041138;28;20211;-80
2023/04/18 05:04:08;;;;;;;29.70;27.40;;;;;;;;;;5042032;28;20448;-80
2023/04/18 05:06:35;;;;;;;28.43;26.13;;;;;;;;;;5041277;28;20462;-80
2023/04/18 05:09:04;;;;;;;28.50;26.30;;;;;;;;;;5040389;28;20522;-80
2023/04/18 05:11:31;;;;;;;31.63;28.77;;;;;;;;;;5040961;28;20482;-80
2023/04/18 05:13:58;;;;;;;30.60;28.17;;;;;;;;;;5041088;28;20426;-79
2023/04/18 05:16:25;;;;;;;30.37;27.93;;;;;;;;;;5040397;28;20201;-79
2023/04/18 05:18:52;;;;;;;29.27;27.10;;;;;;;;;;5040115;28;20491;-80
2023/04/18 05:21:19;;;;;;;31.07;28.60;;;;;;;;;;5041143;28;20934;-79
2023/04/18 05:23:46;;;;;;;29.33;27.13;;;;;;;;;;5041156;28;20943;-80
2023/04/18 05:26:14;;;;;;;29.10;26.87;;;;;;;;;;5039931;28;20414;-79
2023/04/18 05:28:41;;;;;;;25.57;23.67;;;;;;;;;;5039710;28;20487;-79
2023/04/18 05:31:08;;;;;;;29.47;27.17;;;;;;;;;;5040463;28;20936;-80
2023/04/18 05:33:35;;;;;;;29.03;26.80;;;;;;;;;;5038991;28;20451;-81
2023/04/18 05:36:02;;;;;;;30.27;27.90;;;;;;;;;;5039229;28;21003;-80
2023/04/18 05:38:29;;;;;;;29.20;26.90;;;;;;;;;;5039437;28;21158;-80
2023/04/18 05:40:59;;;;;;;30.90;28.47;;;;;;;;;;5040896;28;20463;-80
2023/04/18 05:43:27;;;;;;;28.85;26.45;;;;;;;;;;5040606;28;20418;-80
2023/04/18 05:45:54;;;;;;;29.33;27.00;;;;;;;;;;5039581;28;20266;-80
2023/04/18 05:48:22;;;;;;;29.77;27.13;;;;;;;;;;5039802;28;20486;-79
2023/04/18 05:50:49;;;;;;;30.90;28.40;;;;;;;;;;5039584;28;20467;-81
2023/04/18 05:53:16;;;;;;;25.83;23.88;;;;;;;;;;5039705;28;20459;-80
2023/04/18 05:55:45;;;;;;;29.17;26.87;;;;;;;;;;5039956;28;20654;-80
2023/04/18 05:58:12;;;;;;;32.03;29.43;;;;;;;;;;5039849;28;20462;-81
2023/04/18 06:00:40;;;;;;;29.20;26.90;;;;;;;;;;5040298;28;20509;-80
2023/04/18 06:03:07;;;;;;;28.10;25.90;;;;;;;;;;5040553;28;20236;-80
2023/04/18 06:05:34;;;;;;;29.30;26.87;;;;;;;;;;5039241;28;20451;-81
2023/04/18 06:08:02;;;;;;;30.70;28.13;;;;;;;;;;5039119;28;20532;-80
2023/04/18 06:10:29;;;;;;;30.60;28.10;;;;;;;;;;5039032;28;20434;-80
2023/04/18 06:12:56;;;;;;;30.00;27.50;;;;;;;;;;5039042;28;21005;-80
2023/04/18 06:15:23;;;;;;;31.97;29.17;;;;;;;;;;5039143;28;20525;-80
2023/04/18 06:17:51;;;;;;;29.43;27.10;;;;;;;;;;5038043;28;20446;-80
2023/04/18 06:20:18;;;;;;;29.60;27.20;;;;;;;;;;5038356;28;20479;-80
2023/04/18 06:22:45;;;;;;;31.00;28.40;;;;;;;;;;5039348;28;20447;-80
2023/04/18 06:25:13;;;;;;;25.03;23.23;;;;;;;;;;5039584;28;20430;-80
2023/04/18 06:27:40;;;;;;;28.23;25.83;;;;;;;;;;5037280;28;20491;-80
2023/04/18 06:30:08;;;;;;;28.97;26.47;;;;;;;;;;5038820;28;20454;-81
2023/04/18 06:32:35;;;;;;;27.03;24.97;;;;;;;;;;5038656;28;20476;-80
2023/04/18 06:35:04;;;;;;;29.40;24.83;;;;;;;;;;5038152;28;20837;-80
2023/04/18 06:37:31;;;;;;;31.60;29.03;;;;;;;;;;5037549;28;20449;-80
2023/04/18 06:39:58;;;;;;;30.77;28.27;;;;;;;;;;5037978;28;20509;-80
2023/04/18 06:42:25;;;;;;;31.93;28.93;;;;;;;;;;5037920;28;20474;-81
2023/04/18 06:44:52;;;;;;;29.43;26.93;;;;;;;;;;5037270;28;20484;-81
2023/04/18 06:47:19;;;;;;;28.03;25.73;;;;;;;;;;5036961;28;20458;-79
2023/04/18 06:49:46;;;;;;;31.97;29.27;;;;;;;;;;5037815;28;20510;-81
2023/04/18 06:52:14;;;;;;;28.13;25.73;;;;;;;;;;5037423;28;20479;-81
2023/04/18 06:54:41;;;;;;;29.13;26.63;;;;;;;;;;5039885;28;20411;-81
2023/04/18 06:57:08;;;;;;;31.37;28.53;;;;;;;;;;5038369;28;20505;-81
2023/04/18 06:59:36;;;;;;;30.80;28.17;;;;;;;;;;5038604;28;20462;-81
2023/04/18 07:02:03;;;;;;;30.10;27.67;;;;;;;;;;5039201;28;20442;-81
2023/04/18 07:04:30;;;;;;;31.00;28.40;;;;;;;;;;5038352;28;20426;-81
2023/04/18 07:06:57;;;;;;;29.80;27.40;;;;;;;;;;5036407;28;20928;-80
2023/04/18 07:09:25;;;;;;;31.93;29.20;;;;;;;;;;5037522;28;20471;-81
2023/04/18 07:11:53;;;;;;;30.50;27.80;;;;;;;;;;5040370;28;20521;-79
2023/04/18 07:14:20;;;;;;;30.77;28.20;;;;;;;;;;5039202;28;20437;-81
2023/04/18 07:16:47;;;;;;;30.80;28.20;;;;;;;;;;5038299;28;20414;-81
2023/04/18 07:19:14;;;;;;;29.43;26.97;;;;;;;;;;5038436;28;20497;-81
2023/04/18 07:21:43;;;;;;;31.23;28.43;;;;;;;;;;5038242;28;20580;-80
2023/04/18 07:24:10;;;;;;;30.27;27.60;;;;;;;;;;5038240;28;20459;-80
2023/04/18 07:26:39;;;;;;;32.53;29.63;;;;;;;;;;5037378;28;20426;-81
2023/04/18 07:29:06;;;;;;;33.10;30.30;;;;;;;;;;5037699;28;20466;-81
2023/04/18 07:31:33;;;;;;;31.70;28.93;;;;;;;;;;5037121;28;20430;-81
2023/04/18 07:34:00;;;;;;;32.60;29.90;;;;;;;;;;5037001;28;20430;-80
2023/04/18 07:36:27;;;;;;;31.97;29.17;;;;;;;;;;5036092;28;20502;-80
2023/04/18 07:38:54;;;;;;;31.33;28.50;;;;;;;;;;5035708;28;20458;-81
2023/04/18 07:41:21;;;;;;;32.40;29.47;;;;;;;;;;5036786;28;20422;-81
2023/04/18 07:43:49;;;;;;;31.67;28.77;;;;;;;;;;5036584;28;20865;-81
2023/04/18 07:46:16;;;;;;;33.53;30.60;;;;;;;;;;5035979;28;20452;-81
2023/04/18 07:48:43;;;;;;;31.50;28.73;;;;;;;;;;5035699;28;20472;-81
2023/04/18 07:51:11;;;;;;;32.23;29.17;;;;;;;;;;5036942;28;20456;-81
2023/04/18 07:53:39;;;;;;;30.83;28.30;;;;;;;;;;5036697;28;20476;-81
2023/04/18 07:56:07;;;;;;;30.20;27.70;;;;;;;;;;5036687;28;20482;-81
2023/04/18 07:58:34;;;;;;;34.30;31.20;;;;;;;;;;5040067;28;20479;-80
2023/04/18 08:01:03;;;;;;;34.37;31.17;;;;;;;;;;5040844;28;20422;-81
2023/04/18 08:03:30;;;;;;;32.70;29.90;;;;;;;;;;5041007;28;20458;-81
2023/04/18 08:05:57;;;;;;;31.23;28.63;;;;;;;;;;5041010;28;20875;-82
2023/04/18 08:08:24;;;;;;;32.00;29.27;;;;;;;;;;5040686;28;20492;-81
2023/04/18 08:10:51;;;;;;;33.50;30.47;;;;;;;;;;5040389;28;20926;-80
2023/04/18 08:13:18;;;;;;;33.20;30.30;;;;;;;;;;5040897;28;20419;-81
2023/04/18 08:15:45;;;;;;;33.83;30.47;;;;;;;;;;5040116;28;20467;-80
2023/04/18 08:18:13;;;;;;;32.90;30.07;;;;;;;;;;5040304;28;20509;-81
2023/04/18 08:20:40;;;;;;;32.80;30.07;;;;;;;;;;5040861;28;20478;-81
2023/04/18 08:23:08;;;;;;;31.83;29.23;;;;;;;;;;5040540;28;20486;-81
2023/04/18 08:25:35;;;;;;;35.23;31.87;;;;;;;;;;5040175;28;20475;-81
2023/04/18 08:28:02;;;;;;;32.90;30.03;;;;;;;;;;5042313;28;20549;-81
2023/04/18 08:30:30;;;;;;;31.90;29.27;;;;;;;;;;5043143;28;20430;-81
2023/04/18 08:32:57;;;;;;;36.23;33.07;;;;;;;;;;5043228;28;20492;-81
2023/04/18 08:35:25;;;;;;;32.80;29.80;;;;;;;;;;5040668;28;20855;-84
2023/04/18 08:37:52;;;;;;;31.80;29.30;;;;;;;;;;5041425;28;20434;-83
2023/04/18 08:40:19;;;;;;;33.03;30.07;;;;;;;;;;5040236;28;20446;-84
2023/04/18 08:42:46;;;;;;;34.87;31.87;;;;;;;;;;5040883;28;20533;-82
2023/04/18 08:45:13;;;;;;;33.03;30.23;;;;;;;;;;5039552;28;20434;-85
2023/04/18 08:47:40;;;;;;;35.20;32.20;;;;;;;;;;5036456;28;20445;-86
2023/04/18 08:50:08;;;;;;;33.13;30.13;;;;;;;;;;5037519;28;21019;-84
2023/04/18 08:53:17;;;;;;;33.67;30.77;;;;;;;;;;5035322;28;20776;-84
2023/04/18 08:56:04;;;;;;;30.30;27.90;;;;;;;;;;5032113;28;20446;-81
2023/04/18 08:58:33;;;;;;;31.80;28.90;;;;;;;;;;5032218;28;21003;-80
2023/04/18 09:01:01;;;;;;;32.27;29.57;;;;;;;;;;5037798;28;20490;-80
2023/04/18 09:03:36;;;;;;;36.10;32.93;;;;;;;;;;5036150;28;20452;-80
2023/04/18 09:06:07;;;;;;;33.73;30.97;;;;;;;;;;5037844;28;20457;-82
2023/04/18 09:08:34;;;;;;;31.57;29.03;;;;;;;;;;5032763;28;20519;-82
2023/04/18 09:11:17;;;;;;;33.70;30.80;;;;;;;;;;5035329;28;20541;-80
2023/04/18 09:13:46;;;;;;;30.10;27.90;;;;;;;;;;5036213;28;20513;-80
2023/04/18 09:16:13;;;;;;;33.77;30.90;;;;;;;;;;5037195;28;20488;-85
2023/04/18 09:18:41;;;;;;;32.80;30.10;;;;;;;;;;5036599;28;20962;-86
2023/04/18 09:21:18;;;;;;;34.77;31.97;;;;;;;;;;5037146;28;20517;-82
2023/04/18 09:23:46;;;;;;;33.77;30.83;;;;;;;;;;5036448;28;20430;-79
2023/04/18 09:26:13;;;;;;;33.17;30.20;;;;;;;;;;5036564;28;20545;-79
2023/04/18 09:28:40;;;;;;;31.93;28.83;;;;;;;;;;5037063;28;20522;-79
2023/04/18 09:31:10;;;;;;;35.57;32.30;;;;;;;;;;5038297;28;20410;-81
2023/04/18 09:33:37;;;;;;;34.53;31.70;;;;;;;;;;5038879;28;20539;-80
2023/04/18 09:36:17;;;;;;;32.77;30.30;;;;;;;;;;5038900;28;20426;-81
2023/04/18 09:38:44;;;;;;;33.23;30.43;;;;;;;;;;5038271;28;20475;-81
2023/04/18 09:41:12;;;;;;;28.63;26.37;;;;;;;;;;5040451;28;20436;-80
2023/04/18 09:43:39;;;;;;;35.00;31.93;;;;;;;;;;5039619;28;20923;-80
2023/04/18 09:46:07;;;;;;;31.73;29.17;;;;;;;;;;5039823;28;20456;-81
2023/04/18 09:48:35;;;;;;;32.73;30.10;;;;;;;;;;5039629;28;20462;-80
2023/04/18 09:51:06;;;;;;;33.93;31.13;;;;;;;;;;5039764;28;20445;-80
2023/04/18 09:53:33;;;;;;;34.33;31.53;;;;;;;;;;5038274;28;20492;-80
2023/04/18 09:56:00;;;;;;;33.17;30.57;;;;;;;;;;5038384;28;20492;-80
2023/04/18 09:58:29;;;;;;;34.67;31.97;;;;;;;;;;5039088;28;20438;-80
2023/04/18 10:00:56;;;;;;;33.07;30.53;;;;;;;;;;5039802;28;20484;-81
2023/04/18 10:03:28;;;;;;;35.70;32.63;;;;;;;;;;5039093;28;20434;-80
2023/04/18 10:05:57;;;;;;;34.07;31.47;;;;;;;;;;5038465;28;20486;-80
2023/04/18 10:08:24;;;;;;;35.00;32.30;;;;;;;;;;5038855;28;20487;-81
2023/04/18 10:10:52;;;;;;;32.87;30.33;;;;;;;;;;5039981;28;20458;-81
2023/04/18 10:13:20;;;;;;;30.70;28.17;;;;;;;;;;5040371;28;20563;-80
2023/04/18 10:15:47;;;;;;;35.70;33.00;;;;;;;;;;5040064;28;20492;-80
2023/04/18 10:18:15;;;;;;;35.43;32.70;;;;;;;;;;5040861;28;20449;-80
2023/04/18 10:20:43;;;;;;;31.93;29.73;;;;;;;;;;5041979;28;20464;-80
2023/04/18 10:23:29;;;;;;;35.33;32.47;;;;;;;;;;5041686;28;20466;-80
2023/04/18 10:25:57;;;;;;;33.93;31.43;;;;;;;;;;5039295;28;20911;-81
2023/04/18 10:28:26;;;;;;;35.47;32.77;;;;;;;;;;5040107;28;20485;-80
2023/04/18 10:30:55;;;;;;;32.47;30.07;;;;;;;;;;5040275;28;20457;-80
2023/04/18 10:33:23;;;;;;;34.17;31.47;;;;;;;;;;5039278;28;20482;-81
2023/04/18 10:35:57;;;;;;;34.07;31.47;;;;;;;;;;5039328;28;20462;-81
2023/04/18 10:38:24;;;;;;;33.53;30.90;;;;;;;;;;5039301;28;20828;-84
2023/04/18 10:40:51;;;;;;;32.73;30.17;;;;;;;;;;5040472;28;20432;-80
2023/04/18 10:43:20;;;;;;;32.73;30.13;;;;;;;;;;5039707;28;20480;-80
2023/04/18 10:46:07;;;;;;;31.53;29.23;;;;;;;;;;5039377;28;20475;-80
2023/04/18 10:48:34;;;;;;;34.47;31.77;;;;;;;;;;5040293;28;21037;-80
2023/04/18 10:51:17;;;;;;;36.17;33.47;;;;;;;;;;5040419;28;20839;-81
2023/04/18 10:53:47;;;;;;;32.07;29.70;;;;;;;;;;5039163;28;20476;-80
2023/04/18 10:56:15;;;;;;;34.63;32.03;;;;;;;;;;5038592;28;20456;-80
2023/04/18 10:58:44;;;;;;;35.07;32.17;;;;;;;;;;5039233;28;20482;-81
2023/04/18 11:01:13;;;;;;;33.70;31.10;;;;;;;;;;5040036;28;20505;-80
2023/04/18 11:03:40;;;;;;;33.60;31.03;;;;;;;;;;5039034;28;20426;-80
2023/04/18 11:06:07;;;;;;;33.60;31.00;;;;;;;;;;5038826;28;20441;-80
2023/04/18 11:08:34;;;;;;;32.33;29.93;;;;;;;;;;5038316;28;20495;-81
2023/04/18 11:11:02;;;;;;;33.03;30.50;;;;;;;;;;5040253;28;20501;-79
2023/04/18 11:13:30;;;;;;;34.50;31.97;;;;;;;;;;5036224;28;20454;-82
2023/04/18 11:15:58;;;;;;;32.70;30.23;;;;;;;;;;5036129;28;20426;-81
2023/04/18 11:18:25;;;;;;;33.67;31.13;;;;;;;;;;5032884;28;20943;-79
2023/04/18 11:20:52;;;;;;;33.43;30.83;;;;;;;;;;5032921;28;20433;-79
2023/04/18 11:23:23;;;;;;;35.13;32.40;;;;;;;;;;5034039;28;20449;-79
2023/04/18 11:25:53;;;;;;;34.40;31.60;;;;;;;;;;5034025;28;20498;-79
2023/04/18 11:28:21;;;;;;;32.20;29.83;;;;;;;;;;5035789;28;20504;-80
2023/04/18 11:30:48;;;;;;;32.23;29.93;;;;;;;;;;5035026;28;20479;-79
2023/04/18 11:33:16;;;;;;;33.30;30.90;;;;;;;;;;5038967;28;20903;-80
2023/04/18 11:35:44;;;;;;;28.70;26.67;;;;;;;;;;5038569;28;20448;-80
2023/04/18 11:38:12;;;;;;;34.03;31.53;;;;;;;;;;5040029;28;20467;-80
2023/04/18 11:40:39;;;;;;;34.03;31.47;;;;;;;;;;5043825;28;20465;-80
2023/04/18 11:43:07;;;;;;;34.70;32.07;;;;;;;;;;5039473;28;20525;-80
2023/04/18 11:45:34;;;;;;;32.90;30.57;;;;;;;;;;5038543;28;20455;-80
2023/04/18 11:48:01;;;;;;;31.23;29.10;;;;;;;;;;5038799;28;20430;-80
2023/04/18 11:50:35;;;;;;;31.40;28.60;;;;;;;;;;5038929;28;20519;-80
2023/04/18 11:53:02;;;;;;;32.63;30.33;;;;;;;;;;5040653;28;20448;-80
2023/04/18 11:55:29;;;;;;;31.50;29.27;;;;;;;;;;5039207;28;20484;-80
2023/04/18 11:57:57;;;;;;;33.53;30.93;;;;;;;;;;5040029;28;20430;-80
2023/04/18 12:00:34;;;;;;;32.77;30.57;;;;;;;;;;5039849;28;20522;-80
2023/04/18 12:03:03;;;;;;;30.77;28.57;;;;;;;;;;5039961;28;20424;-80
2023/04/18 12:05:32;;;;;;;32.50;30.00;;;;;;;;;;5039547;28;21002;-80
2023/04/18 12:08:05;;;;;;;34.70;32.20;;;;;;;;;;5041081;28;20421;-80
2023/04/18 12:10:34;;;;;;;32.53;29.90;;;;;;;;;;5041338;28;20775;-80
2023/04/18 12:13:01;;;;;;;27.33;25.53;;;;;;;;;;5040854;28;20485;-80
2023/04/18 12:15:29;;;;;;;31.83;29.50;;;;;;;;;;5039937;28;20471;-80
2023/04/18 12:17:59;;;;;;;33.20;30.60;;;;;;;;;;5041980;28;20426;-80
2023/04/18 12:20:35;;;;;;;31.67;29.27;;;;;;;;;;5043697;28;20434;-80
2023/04/18 12:23:03;;;;;;;32.20;29.80;;;;;;;;;;5041222;28;20425;-81
2023/04/18 12:25:30;;;;;;;31.40;28.83;;;;;;;;;;5044943;28;21098;-81
2023/04/18 12:27:58;;;;;;;31.30;29.07;;;;;;;;;;5045535;28;20418;-81
2023/04/18 12:30:26;;;;;;;31.33;29.13;;;;;;;;;;5044501;28;20953;-80
2023/04/18 12:32:54;;;;;;;32.37;30.07;;;;;;;;;;5044093;28;20911;-80
2023/04/18 12:35:21;;;;;;;32.70;30.40;;;;;;;;;;5043197;28;20446;-80
2023/04/18 12:37:50;;;;;;;32.60;30.30;;;;;;;;;;5043057;28;20428;-79
2023/04/18 12:40:18;;;;;;;31.87;29.67;;;;;;;;;;5042971;28;20503;-79
2023/04/18 12:42:46;;;;;;;32.90;30.60;;;;;;;;;;5042448;28;20900;-80
2023/04/18 12:45:13;;;;;;;33.20;30.80;;;;;;;;;;5042105;28;20454;-80
2023/04/18 12:47:41;;;;;;;33.60;30.60;;;;;;;;;;5042246;28;20473;-80
2023/04/18 12:50:09;;;;;;;30.83;28.70;;;;;;;;;;5042173;28;20466;-79
2023/04/18 12:52:39;;;;;;;34.63;31.93;;;;;;;;;;5042080;28;20509;-80
2023/04/18 12:55:09;;;;;;;32.53;30.27;;;;;;;;;;5041316;28;20892;-79
2023/04/18 12:57:36;;;;;;;29.63;27.63;;;;;;;;;;5039542;28;20442;-80
2023/04/18 13:00:04;;;;;;;30.63;28.33;;;;;;;;;;5040536;28;20467;-80
2023/04/18 13:02:34;;;;;;;29.43;27.43;;;;;;;;;;5042052;28;20440;-80
2023/04/18 13:05:00;;;;;;;28.57;26.70;;;;;;;;;;5039796;28;20463;-81
2023/04/18 13:07:33;;;;;;;30.97;28.77;;;;;;;;;;5041111;28;20455;-80
2023/04/18 13:10:00;;;;;;;29.23;27.23;;;;;;;;;;5040839;28;20480;-80
2023/04/18 13:12:29;;;;;;;32.13;29.93;;;;;;;;;;5041790;28;20449;-80
2023/04/18 13:14:56;;;;;;;31.03;28.90;;;;;;;;;;5041356;28;20783;-81
2023/04/18 13:17:23;;;;;;;32.20;29.80;;;;;;;;;;5041231;28;20498;-81
2023/04/18 13:19:50;;;;;;;30.10;28.07;;;;;;;;;;5040898;28;20516;-80
2023/04/18 13:22:18;;;;;;;31.53;29.20;;;;;;;;;;5041741;28;20434;-80
2023/04/18 13:24:45;;;;;;;31.30;29.00;;;;;;;;;;5041667;28;20501;-80
2023/04/18 13:27:11;;;;;;;31.50;29.20;;;;;;;;;;5041761;28;20546;-80
2023/04/18 13:29:40;;;;;;;32.03;29.80;;;;;;;;;;5041850;28;20484;-80
2023/04/18 13:32:08;;;;;;;28.87;26.77;;;;;;;;;;5041194;28;20436;-81
2023/04/18 13:34:37;;;;;;;31.13;29.00;;;;;;;;;;5041998;28;20451;-80
2023/04/18 13:37:04;;;;;;;30.77;28.70;;;;;;;;;;5040196;28;20957;-81
2023/04/18 13:39:32;;;;;;;28.97;26.97;;;;;;;;;;5041694;28;20479;-85
2023/04/18 13:42:01;;;;;;;31.87;29.57;;;;;;;;;;5041092;28;20430;-80
2023/04/18 13:44:28;;;;;;;31.93;29.60;;;;;;;;;;5041162;28;20497;-80
2023/04/18 13:46:57;;;;;;;30.50;28.40;;;;;;;;;;5040247;28;20455;-80
2023/04/18 13:49:24;;;;;;;31.33;28.93;;;;;;;;;;5042703;28;20454;-81
2023/04/18 13:51:55;;;;;;;29.73;27.73;;;;;;;;;;5043998;28;20426;-81
2023/04/18 13:54:22;;;;;;;31.10;28.80;;;;;;;;;;5042072;28;20477;-80
2023/04/18 13:56:49;;;;;;;29.47;27.40;;;;;;;;;;5041923;28;20446;-81
2023/04/18 13:59:16;;;;;;;32.07;29.67;;;;;;;;;;5042508;28;20454;-80
2023/04/18 14:01:43;;;;;;;30.53;28.37;;;;;;;;;;5041982;28;20452;-80
2023/04/18 14:04:12;;;;;;;29.33;27.17;;;;;;;;;;5041536;28;20418;-80
2023/04/18 14:06:39;;;;;;;28.40;26.50;;;;;;;;;;5041274;28;20444;-80
2023/04/18 14:09:06;;;;;;;29.13;27.10;;;;;;;;;;5041464;28;20454;-80
2023/04/18 14:11:33;;;;;;;30.17;28.13;;;;;;;;;;5042256;28;20806;-80
2023/04/18 14:14:00;;;;;;;31.57;29.20;;;;;;;;;;5041425;28;20426;-80
2023/04/18 14:16:28;;;;;;;30.87;28.57;;;;;;;;;;5041781;28;20426;-80
2023/04/18 14:18:55;;;;;;;30.37;28.37;;;;;;;;;;5041446;28;20488;-80
2023/04/18 14:21:25;;;;;;;29.90;27.80;;;;;;;;;;5041818;28;20438;-80